createdAt,value
2023-05-10T00:00:30.878Z,8.31
2023-05-10T00:05:47.314Z,8.17
2023-05-10T00:10:53.667Z,8.05
2023-05-10T00:15:58.142Z,7.97
2023-05-10T00:21:03.056Z,7.87
2023-05-10T00:26:09.106Z,7.74
2023-05-10T00:31:16.089Z,7.60
2023-05-10T00:36:21.682Z,7.46
2023-05-10T00:41:26.476Z,7.34
2023-05-10T00:46:33.085Z,7.24
2023-05-10T00:51:38.635Z,7.14
2023-05-10T00:56:50.056Z,7.05
2023-05-10T01:01:55.223Z,6.94
2023-05-10T01:07:00.787Z,6.84
2023-05-10T01:12:08.654Z,6.74
2023-05-10T01:17:13.982Z,6.64
2023-05-10T01:22:47.530Z,6.55
2023-05-10T01:28:14.536Z,6.49
2023-05-10T01:33:38.955Z,6.41
2023-05-10T01:38:53.520Z,6.32
2023-05-10T01:44:27.237Z,6.23
2023-05-10T01:49:34.184Z,6.21
2023-05-10T01:54:40.573Z,6.14
2023-05-10T01:59:47.245Z,6.09
2023-05-10T02:04:53.050Z,6.04
2023-05-10T02:09:58.100Z,6.00
2023-05-10T02:15:03.709Z,5.94
2023-05-10T02:20:10.081Z,5.90
2023-05-10T02:25:17.067Z,5.83
2023-05-10T02:30:21.381Z,5.82
2023-05-10T02:35:34.756Z,5.81
2023-05-10T02:40:39.424Z,5.80
2023-05-10T02:45:45.232Z,5.81
2023-05-10T02:50:52.701Z,5.78
2023-05-10T02:56:00.689Z,5.76
2023-05-10T03:01:08.953Z,5.75
2023-05-10T03:06:13.034Z,5.73
2023-05-10T03:11:41.525Z,5.69
2023-05-10T03:16:58.913Z,5.69
2023-05-10T03:22:10.447Z,5.76
2023-05-10T03:27:16.138Z,5.89
2023-05-10T03:32:21.037Z,6.05
2023-05-10T03:37:26.268Z,6.23
2023-05-10T03:42:32.027Z,6.45
2023-05-10T03:47:37.313Z,6.68
2023-05-10T03:52:42.487Z,6.92
2023-05-10T03:57:47.763Z,7.23
2023-05-10T04:02:52.341Z,8.02
2023-05-10T04:07:59.098Z,9.71
2023-05-10T04:13:03.248Z,11.09
2023-05-10T04:18:08.806Z,12.13
2023-05-10T04:23:16.101Z,13.01
2023-05-10T04:28:20.042Z,13.72
2023-05-10T04:33:23.774Z,14.10
2023-05-10T04:38:28.351Z,14.63
2023-05-10T04:43:32.598Z,15.25
2023-05-10T04:48:37.701Z,15.56
2023-05-10T04:53:43.017Z,15.63
2023-05-10T04:58:48.446Z,15.42
2023-05-10T05:03:54.564Z,15.28
2023-05-10T05:08:58.444Z,13.84
2023-05-10T05:14:02.316Z,12.98
2023-05-10T05:19:07.683Z,12.50
2023-05-10T05:24:13.931Z,12.26
2023-05-10T05:29:17.955Z,12.17
2023-05-10T05:34:23.791Z,12.24
2023-05-10T05:39:27.659Z,12.38
2023-05-10T05:44:31.336Z,12.50
2023-05-10T05:49:35.997Z,12.60
2023-05-10T05:54:40.183Z,12.83
2023-05-10T05:59:45.311Z,12.95
2023-05-10T06:04:48.964Z,13.04
2023-05-10T06:09:53.549Z,13.10
2023-05-10T06:14:57.686Z,13.25
2023-05-10T06:20:02.266Z,13.31
2023-05-10T06:25:06.845Z,13.43
2023-05-10T06:30:13.448Z,13.65
2023-05-10T06:35:17.828Z,13.85
2023-05-10T06:40:22.307Z,14.09
2023-05-10T06:45:26.179Z,14.30
2023-05-10T06:50:30.232Z,14.46
2023-05-10T06:55:34.029Z,14.78
2023-05-10T07:00:41.858Z,14.87
2023-05-10T07:05:48.134Z,15.04
2023-05-10T07:10:51.882Z,15.31
2023-05-10T07:15:56.460Z,15.53
2023-05-10T07:21:00.242Z,15.58
2023-05-10T07:26:04.681Z,15.74
2023-05-10T07:31:09.283Z,15.86
2023-05-10T07:36:13.756Z,16.02
2023-05-10T07:41:17.471Z,16.31
2023-05-10T07:46:21.603Z,16.49
2023-05-10T07:51:26.562Z,16.61
2023-05-10T07:56:33.201Z,16.78
2023-05-10T08:01:36.977Z,16.97
2023-05-10T08:06:41.472Z,17.12
2023-05-10T08:11:45.219Z,17.19
2023-05-10T08:16:49.070Z,17.35
2023-05-10T08:21:52.977Z,17.69
2023-05-10T08:26:56.656Z,17.92
2023-05-10T08:32:00.368Z,18.04
2023-05-10T08:37:05.054Z,17.99
2023-05-10T08:42:09.645Z,18.01
2023-05-10T08:47:14.683Z,18.06
2023-05-10T08:52:19.338Z,18.27
2023-05-10T08:57:23.993Z,18.37
2023-05-10T09:02:28.296Z,18.44
2023-05-10T09:07:34.203Z,18.50
2023-05-10T09:12:39.004Z,18.60
2023-05-10T09:17:44.071Z,18.93
2023-05-10T09:22:48.707Z,18.94
2023-05-10T09:27:53.330Z,19.00
2023-05-10T09:32:58.378Z,19.19
2023-05-10T09:38:06.906Z,19.36
2023-05-10T09:43:12.186Z,19.35
2023-05-10T09:48:16.237Z,19.40
2023-05-10T09:53:20.156Z,19.55
2023-05-10T09:58:24.952Z,19.74
2023-05-10T10:03:30.290Z,19.67
2023-05-10T10:08:34.205Z,19.76
2023-05-10T10:13:38.528Z,19.92
2023-05-10T10:18:47.212Z,20.12
2023-05-10T10:23:51.669Z,20.14
2023-05-10T10:29:03.324Z,20.18
2023-05-10T10:34:11.491Z,20.23
2023-05-10T10:39:16.462Z,20.24
2023-05-10T10:44:26.649Z,20.40
2023-05-10T10:49:39.838Z,20.68
2023-05-10T10:54:53.830Z,20.71
2023-05-10T11:00:20.132Z,20.61
2023-05-10T11:05:45.356Z,20.88
2023-05-10T11:11:08.435Z,20.84
2023-05-10T11:16:26.252Z,20.67
2023-05-10T11:21:32.230Z,20.64
2023-05-10T11:26:37.282Z,20.91
2023-05-10T11:31:46.461Z,21.19
2023-05-10T11:36:55.177Z,21.28
2023-05-10T11:42:00.771Z,21.22
2023-05-10T11:47:05.093Z,21.35
2023-05-10T11:52:10.165Z,21.59
2023-05-10T11:57:14.048Z,21.53
2023-05-10T12:02:18.588Z,21.38
2023-05-10T12:07:22.483Z,21.07
2023-05-10T12:12:26.476Z,21.28
2023-05-10T12:17:31.374Z,21.48
2023-05-10T12:22:36.291Z,21.51
2023-05-10T12:27:40.108Z,21.60
2023-05-10T12:32:45.807Z,21.81
2023-05-10T12:37:49.609Z,21.96
2023-05-10T12:42:53.968Z,21.93
2023-05-10T12:47:58.133Z,21.96
2023-05-10T12:53:01.857Z,22.10
2023-05-10T12:58:06.148Z,22.24
2023-05-10T13:03:10.027Z,22.37
2023-05-10T13:08:14.816Z,22.27
2023-05-10T13:13:19.469Z,22.26
2023-05-10T13:18:23.551Z,22.40
2023-05-10T13:23:27.578Z,22.28
2023-05-10T13:28:31.970Z,22.30
2023-05-10T13:33:35.996Z,22.61
2023-05-10T13:38:40.879Z,22.25
2023-05-10T13:43:44.577Z,21.94
2023-05-10T13:48:48.353Z,21.44
2023-05-10T13:53:53.054Z,21.30
2023-05-10T13:59:00.243Z,21.52
2023-05-10T14:04:04.779Z,21.59
2023-05-10T14:09:09.557Z,21.37
2023-05-10T14:14:14.675Z,21.28
2023-05-10T14:19:18.843Z,21.44
2023-05-10T14:24:22.567Z,21.61
2023-05-10T14:29:26.358Z,21.52
2023-05-10T14:34:31.382Z,21.53
2023-05-10T14:39:35.517Z,21.25
2023-05-10T14:44:39.311Z,21.14
2023-05-10T14:49:43.082Z,21.24
2023-05-10T14:54:46.859Z,21.19
2023-05-10T14:59:50.562Z,21.23
2023-05-10T15:04:54.887Z,21.27
2023-05-10T15:09:58.922Z,21.45
2023-05-10T15:15:03.555Z,21.39
2023-05-10T15:20:08.203Z,21.20
2023-05-10T15:25:12.085Z,21.05
2023-05-10T15:30:16.399Z,21.12
2023-05-10T15:35:20.316Z,21.48
2023-05-10T15:40:24.915Z,21.52
2023-05-10T15:45:30.450Z,21.21
2023-05-10T15:50:34.908Z,21.01
2023-05-10T15:55:38.811Z,20.87
2023-05-10T16:00:42.578Z,20.63
2023-05-10T16:05:47.138Z,20.54
2023-05-10T16:10:54.670Z,20.36
2023-05-10T16:15:59.518Z,20.17
2023-05-10T16:21:03.413Z,20.10
2023-05-10T16:26:07.868Z,20.11
2023-05-10T16:31:14.296Z,20.04
2023-05-10T16:36:18.182Z,19.98
2023-05-10T16:41:21.989Z,19.81
2023-05-10T16:46:25.839Z,19.75
2023-05-10T16:51:29.854Z,20.04
2023-05-10T16:56:33.530Z,20.12
2023-05-10T17:01:37.259Z,20.07
2023-05-10T17:06:40.936Z,19.76
2023-05-10T17:11:44.657Z,19.49
2023-05-10T17:16:48.777Z,19.28
2023-05-10T17:21:52.603Z,19.10
2023-05-10T17:26:57.665Z,18.88
2023-05-10T17:32:01.804Z,18.68
2023-05-10T17:37:06.284Z,18.48
2023-05-10T17:42:10.409Z,18.61
2023-05-10T17:47:14.219Z,18.86
2023-05-10T17:52:17.868Z,18.90
2023-05-10T17:57:21.862Z,18.58
2023-05-10T18:02:25.725Z,18.27
2023-05-10T18:07:32.725Z,17.99
2023-05-10T18:12:36.452Z,17.77
2023-05-10T18:17:40.238Z,17.59
2023-05-10T18:22:44.472Z,17.40
2023-05-10T18:27:48.574Z,17.24
2023-05-10T18:32:52.821Z,17.09
2023-05-10T18:37:56.995Z,16.94
2023-05-10T18:43:01.248Z,16.76
2023-05-10T18:48:06.603Z,16.57
2023-05-10T18:53:11.777Z,16.40
2023-05-10T18:58:15.605Z,16.23
2023-05-10T19:03:21.859Z,16.04
2023-05-10T19:08:26.455Z,15.89
2023-05-10T19:13:31.044Z,15.72
2023-05-10T19:18:35.027Z,15.56
2023-05-10T19:23:42.984Z,15.43
2023-05-10T19:28:48.852Z,15.29
2023-05-10T19:33:56.296Z,15.15
2023-05-10T19:39:01.983Z,14.99
2023-05-10T19:44:06.843Z,14.82
2023-05-10T19:49:11.416Z,14.68
2023-05-10T19:54:16.271Z,14.51
2023-05-10T19:59:21.140Z,14.30
2023-05-10T20:04:27.366Z,14.09
2023-05-10T20:09:31.432Z,13.83
2023-05-10T20:14:35.549Z,13.53
2023-05-10T20:19:40.153Z,13.51
2023-05-10T20:24:45.164Z,13.49
2023-05-10T20:29:49.016Z,13.46
2023-05-10T20:34:54.582Z,13.52
2023-05-10T20:39:59.602Z,13.56
2023-05-10T20:45:03.901Z,13.54
2023-05-10T20:50:08.343Z,13.49
2023-05-10T20:55:12.155Z,13.43
2023-05-10T21:00:16.693Z,13.41
2023-05-10T21:05:20.990Z,13.42
2023-05-10T21:10:37.295Z,13.44
2023-05-10T21:15:44.081Z,13.51
2023-05-10T21:20:47.898Z,13.55
2023-05-10T21:25:52.049Z,13.60
2023-05-10T21:30:56.347Z,13.60
2023-05-10T21:36:00.308Z,13.53
2023-05-10T21:41:09.024Z,13.48
2023-05-10T21:46:14.511Z,13.39
2023-05-10T21:51:18.540Z,13.33
2023-05-10T21:56:22.748Z,13.27
2023-05-10T22:01:27.842Z,13.25
2023-05-10T22:06:32.867Z,13.23
2023-05-10T22:11:37.278Z,13.21
2023-05-10T22:16:41.025Z,13.19
2023-05-10T22:21:44.885Z,13.15
2023-05-10T22:26:48.597Z,13.12
2023-05-10T22:31:52.268Z,13.08
2023-05-10T22:36:56.641Z,13.07
2023-05-10T22:42:00.649Z,13.03
2023-05-10T22:47:06.929Z,12.98
2023-05-10T22:52:11.608Z,12.95
2023-05-10T22:57:16.593Z,12.89
2023-05-10T23:02:20.815Z,12.83
2023-05-10T23:07:24.907Z,12.81
2023-05-10T23:12:28.668Z,12.74
2023-05-10T23:17:33.758Z,12.65
2023-05-10T23:22:38.409Z,12.51
2023-05-10T23:27:42.094Z,12.37
2023-05-10T23:32:45.837Z,12.24
2023-05-10T23:37:50.056Z,12.16
2023-05-10T23:42:54.035Z,12.09
2023-05-10T23:47:57.971Z,11.97
2023-05-10T23:53:02.252Z,11.81
2023-05-10T23:58:06.470Z,11.63
